sensor_id;sensor_type;location;lat;lon;timestamp;pressure;altitude;pressure_sealevel;temperature;humidity
69737;BME280;64476;55.004;73.342;2023-05-07T00:00:30;101199.41;;;9.71;34.20
69737;BME280;64476;55.004;73.342;2023-05-07T00:03:32;101182.84;;;9.61;33.81
69737;BME280;64476;55.004;73.342;2023-05-07T00:06:34;101134.41;;;9.26;33.94
69737;BME280;64476;55.004;73.342;2023-05-07T00:09:36;101210.19;;;9.78;34.30
69737;BME280;64476;55.004;73.342;2023-05-07T00:12:40;101209.50;;;9.76;34.10
69737;BME280;64476;55.004;73.342;2023-05-07T00:15:42;101223.06;;;9.81;33.97
69737;BME280;64476;55.004;73.342;2023-05-07T00:18:43;101213.09;;;9.75;34.39
69737;BME280;64476;55.004;73.342;2023-05-07T00:21:45;101210.75;;;9.72;34.98
69737;BME280;64476;55.004;73.342;2023-05-07T00:24:47;101192.50;;;9.61;34.95
69737;BME280;64476;55.004;73.342;2023-05-07T00:27:49;101189.06;;;9.60;34.77
69737;BME280;64476;55.004;73.342;2023-05-07T00:30:52;101214.75;;;9.76;35.30
69737;BME280;64476;55.004;73.342;2023-05-07T00:33:53;101185.75;;;9.58;35.28
69737;BME280;64476;55.004;73.342;2023-05-07T00:36:55;101216.94;;;9.81;35.24
69737;BME280;64476;55.004;73.342;2023-05-07T00:39:57;101216.00;;;9.82;34.75
69737;BME280;64476;55.004;73.342;2023-05-07T00:43:00;101175.25;;;9.58;34.91
69737;BME280;64476;55.004;73.342;2023-05-07T00:46:02;101223.19;;;9.89;33.14
69737;BME280;64476;55.004;73.342;2023-05-07T00:49:03;101220.13;;;10.04;30.92
69737;BME280;64476;55.004;73.342;2023-05-07T00:52:06;101217.47;;;10.13;29.57
69737;BME280;64476;55.004;73.342;2023-05-07T00:55:09;101212.34;;;10.21;28.93
69737;BME280;64476;55.004;73.342;2023-05-07T00:58:11;101139.19;;;9.89;28.47
69737;BME280;64476;55.004;73.342;2023-05-07T01:01:13;101225.28;;;10.52;28.05
69737;BME280;64476;55.004;73.342;2023-05-07T01:04:17;101217.78;;;10.57;27.93
69737;BME280;64476;55.004;73.342;2023-05-07T01:07:18;101215.69;;;10.70;27.89
69737;BME280;64476;55.004;73.342;2023-05-07T01:10:21;101218.56;;;10.77;27.75
69737;BME280;64476;55.004;73.342;2023-05-07T01:13:32;101147.44;;;10.51;28.05
69737;BME280;64476;55.004;73.342;2023-05-07T01:16:35;101174.16;;;10.74;28.17
69737;BME280;64476;55.004;73.342;2023-05-07T01:19:37;101203.75;;;11.04;28.14
69737;BME280;64476;55.004;73.342;2023-05-07T01:22:39;101213.78;;;11.18;27.89
69737;BME280;64476;55.004;73.342;2023-05-07T01:25:43;101202.28;;;11.19;28.15
69737;BME280;64476;55.004;73.342;2023-05-07T01:28:46;101205.13;;;11.26;27.84
69737;BME280;64476;55.004;73.342;2023-05-07T01:31:48;101192.22;;;11.32;27.32
69737;BME280;64476;55.004;73.342;2023-05-07T01:35:02;101216.41;;;11.54;27.28
69737;BME280;64476;55.004;73.342;2023-05-07T01:38:07;101209.44;;;11.62;27.45
69737;BME280;64476;55.004;73.342;2023-05-07T01:41:09;101167.56;;;11.51;27.14
69737;BME280;64476;55.004;73.342;2023-05-07T01:44:14;101124.63;;;11.33;26.67
69737;BME280;64476;55.004;73.342;2023-05-07T01:47:16;101168.41;;;11.69;26.63
69737;BME280;64476;55.004;73.342;2023-05-07T01:50:19;101202.88;;;12.02;26.53
69737;BME280;64476;55.004;73.342;2023-05-07T01:53:22;101197.97;;;12.07;26.58
69737;BME280;64476;55.004;73.342;2023-05-07T01:56:24;101205.00;;;12.25;26.62
69737;BME280;64476;55.004;73.342;2023-05-07T01:59:26;101201.59;;;12.32;26.27
69737;BME280;64476;55.004;73.342;2023-05-07T02:02:28;101209.56;;;12.49;26.32
69737;BME280;64476;55.004;73.342;2023-05-07T02:05:32;101211.50;;;12.64;26.07
69737;BME280;64476;55.004;73.342;2023-05-07T02:08:40;101203.16;;;12.77;26.02
69737;BME280;64476;55.004;73.342;2023-05-07T02:11:46;101217.41;;;13.01;25.66
69737;BME280;64476;55.004;73.342;2023-05-07T02:14:49;101212.69;;;13.21;25.83
69737;BME280;64476;55.004;73.342;2023-05-07T02:18:02;101179.41;;;13.20;25.27
69737;BME280;64476;55.004;73.342;2023-05-07T02:21:04;101209.94;;;13.55;25.32
69737;BME280;64476;55.004;73.342;2023-05-07T02:24:07;101211.97;;;13.77;25.03
69737;BME280;64476;55.004;73.342;2023-05-07T02:27:40;101207.50;;;13.94;25.02
69737;BME280;64476;55.004;73.342;2023-05-07T02:30:43;101194.97;;;14.04;25.05
69737;BME280;64476;55.004;73.342;2023-05-07T02:33:45;101183.88;;;14.09;24.72
69737;BME280;64476;55.004;73.342;2023-05-07T02:36:47;101167.19;;;14.17;24.77
69737;BME280;64476;55.004;73.342;2023-05-07T02:39:53;101203.56;;;14.62;24.82
69737;BME280;64476;55.004;73.342;2023-05-07T02:42:55;101187.66;;;14.78;24.71
69737;BME280;64476;55.004;73.342;2023-05-07T02:46:07;101185.09;;;14.93;24.49
69737;BME280;64476;55.004;73.342;2023-05-07T02:49:13;101190.56;;;15.23;25.03
69737;BME280;64476;55.004;73.342;2023-05-07T02:52:18;101180.19;;;15.36;24.56
69737;BME280;64476;55.004;73.342;2023-05-07T02:55:20;101118.84;;;15.10;24.28
69737;BME280;64476;55.004;73.342;2023-05-07T02:58:22;101179.34;;;15.67;23.80
69737;BME280;64476;55.004;73.342;2023-05-07T03:01:24;101151.66;;;15.69;23.40
69737;BME280;64476;55.004;73.342;2023-05-07T03:04:35;101165.59;;;16.01;22.99
69737;BME280;64476;55.004;73.342;2023-05-07T03:07:37;101147.63;;;16.11;23.05
69737;BME280;64476;55.004;73.342;2023-05-07T03:10:43;101165.34;;;16.40;22.72
69737;BME280;64476;55.004;73.342;2023-05-07T03:13:45;101159.63;;;16.52;22.45
69737;BME280;64476;55.004;73.342;2023-05-07T03:16:49;101160.22;;;16.68;22.18
69737;BME280;64476;55.004;73.342;2023-05-07T03:19:51;101173.63;;;16.96;22.35
69737;BME280;64476;55.004;73.342;2023-05-07T03:22:53;101141.13;;;16.94;22.10
69737;BME280;64476;55.004;73.342;2023-05-07T03:25:55;101142.97;;;17.15;22.15
69737;BME280;64476;55.004;73.342;2023-05-07T03:28:58;101166.19;;;17.50;22.14
69737;BME280;64476;55.004;73.342;2023-05-07T03:32:00;101150.75;;;17.60;21.88
69737;BME280;64476;55.004;73.342;2023-05-07T03:35:03;101119.94;;;17.65;21.89
69737;BME280;64476;55.004;73.342;2023-05-07T03:38:05;101168.09;;;18.12;21.79
69737;BME280;64476;55.004;73.342;2023-05-07T03:41:12;101144.44;;;18.17;21.76
69737;BME280;64476;55.004;73.342;2023-05-07T03:44:20;101163.06;;;18.58;21.52
69737;BME280;64476;55.004;73.342;2023-05-07T03:47:25;101140.13;;;18.64;21.46
69737;BME280;64476;55.004;73.342;2023-05-07T03:50:27;101167.75;;;18.98;21.20
69737;BME280;64476;55.004;73.342;2023-05-07T03:53:29;101114.06;;;18.94;20.89
69737;BME280;64476;55.004;73.342;2023-05-07T03:56:33;101150.16;;;19.36;20.42
69737;BME280;64476;55.004;73.342;2023-05-07T03:59:35;101150.97;;;19.63;19.90
69737;BME280;64476;55.004;73.342;2023-05-07T04:02:37;101154.28;;;19.85;19.77
69737;BME280;64476;55.004;73.342;2023-05-07T04:05:39;101131.31;;;19.98;19.05
69737;BME280;64476;55.004;73.342;2023-05-07T04:08:41;101127.13;;;20.15;18.64
69737;BME280;64476;55.004;73.342;2023-05-07T04:11:43;101137.78;;;20.42;18.37
69737;BME280;64476;55.004;73.342;2023-05-07T04:15:17;101145.84;;;20.67;17.76
69737;BME280;64476;55.004;73.342;2023-05-07T04:18:23;101100.94;;;20.57;17.36
69737;BME280;64476;55.004;73.342;2023-05-07T04:21:25;101141.56;;;21.04;17.08
69737;BME280;64476;55.004;73.342;2023-05-07T04:24:30;101125.06;;;21.14;16.87
69737;BME280;64476;55.004;73.342;2023-05-07T04:27:33;101137.25;;;21.35;16.82
69737;BME280;64476;55.004;73.342;2023-05-07T04:30:35;101102.13;;;21.31;16.39
69737;BME280;64476;55.004;73.342;2023-05-07T04:33:38;101126.31;;;21.61;16.33
69737;BME280;64476;55.004;73.342;2023-05-07T04:36:43;101122.09;;;21.78;16.05
69737;BME280;64476;55.004;73.342;2023-05-07T04:39:48;101104.75;;;21.81;16.07
69737;BME280;64476;55.004;73.342;2023-05-07T04:42:50;101114.84;;;22.04;16.06
69737;BME280;64476;55.004;73.342;2023-05-07T04:45:53;101099.66;;;22.16;15.64
69737;BME280;64476;55.004;73.342;2023-05-07T04:49:01;101113.72;;;22.48;15.71
69737;BME280;64476;55.004;73.342;2023-05-07T04:52:03;101115.00;;;22.58;15.62
69737;BME280;64476;55.004;73.342;2023-05-07T04:55:05;101113.06;;;22.65;15.18
69737;BME280;64476;55.004;73.342;2023-05-07T04:58:12;101095.13;;;22.65;14.93
69737;BME280;64476;55.004;73.342;2023-05-07T05:01:24;101108.66;;;23.01;14.84
69737;BME280;64476;55.004;73.342;2023-05-07T05:04:26;101092.81;;;23.11;14.27
69737;BME280;64476;55.004;73.342;2023-05-07T05:07:29;101096.59;;;23.33;13.95
69737;BME280;64476;55.004;73.342;2023-05-07T05:10:30;101083.91;;;23.40;14.03
69737;BME280;64476;55.004;73.342;2023-05-07T05:13:35;101059.53;;;23.42;13.66
69737;BME280;64476;55.004;73.342;2023-05-07T05:17:09;101072.59;;;23.62;13.25
69737;BME280;64476;55.004;73.342;2023-05-07T05:20:12;101078.31;;;23.77;12.97
69737;BME280;64476;55.004;73.342;2023-05-07T05:23:15;101053.59;;;23.75;12.79
69737;BME280;64476;55.004;73.342;2023-05-07T05:26:55;101074.38;;;24.08;12.67
69737;BME280;64476;55.004;73.342;2023-05-07T05:29:59;101064.44;;;24.21;12.88
69737;BME280;64476;55.004;73.342;2023-05-07T05:33:32;101068.59;;;24.40;12.03
69737;BME280;64476;55.004;73.342;2023-05-07T05:36:38;101057.31;;;24.55;12.05
69737;BME280;64476;55.004;73.342;2023-05-07T05:40:20;101054.31;;;24.68;11.30
69737;BME280;64476;55.004;73.342;2023-05-07T05:43:24;101049.19;;;24.67;11.59
69737;BME280;64476;55.004;73.342;2023-05-07T05:49:41;101016.38;;;24.64;11.17
69737;BME280;64476;55.004;73.342;2023-05-07T05:52:45;101034.78;;;24.89;11.27
69737;BME280;64476;55.004;73.342;2023-05-07T05:55:47;101037.75;;;25.05;11.06
69737;BME280;64476;55.004;73.342;2023-05-07T05:58:50;101024.91;;;25.07;10.64
69737;BME280;64476;55.004;73.342;2023-05-07T06:01:52;100999.31;;;25.04;11.00
69737;BME280;64476;55.004;73.342;2023-05-07T06:04:54;101027.81;;;25.22;10.47
69737;BME280;64476;55.004;73.342;2023-05-07T06:07:59;100998.97;;;25.01;10.81
69737;BME280;64476;55.004;73.342;2023-05-07T06:11:05;101019.00;;;25.27;10.75
69737;BME280;64476;55.004;73.342;2023-05-07T06:14:10;101022.97;;;25.41;10.54
69737;BME280;64476;55.004;73.342;2023-05-07T06:17:12;101000.41;;;25.42;10.53
69737;BME280;64476;55.004;73.342;2023-05-07T06:20:14;101018.00;;;25.50;10.42
69737;BME280;64476;55.004;73.342;2023-05-07T06:23:16;100998.63;;;25.53;10.09
69737;BME280;64476;55.004;73.342;2023-05-07T06:26:25;101006.19;;;25.73;10.19
69737;BME280;64476;55.004;73.342;2023-05-07T06:29:32;101000.63;;;25.79;9.88
69737;BME280;64476;55.004;73.342;2023-05-07T06:32:36;101000.72;;;25.90;9.99
69737;BME280;64476;55.004;73.342;2023-05-07T06:35:38;100980.13;;;26.00;10.06
69737;BME280;64476;55.004;73.342;2023-05-07T06:38:41;100983.06;;;25.99;9.95
69737;BME280;64476;55.004;73.342;2023-05-07T06:41:43;100985.50;;;26.00;10.09
69737;BME280;64476;55.004;73.342;2023-05-07T06:44:56;100953.50;;;26.04;10.16
69737;BME280;64476;55.004;73.342;2023-05-07T06:47:58;100945.38;;;26.26;9.88
69737;BME280;64476;55.004;73.342;2023-05-07T06:51:00;100952.59;;;26.47;9.70
69737;BME280;64476;55.004;73.342;2023-05-07T06:54:07;100952.28;;;26.76;9.59
69737;BME280;64476;55.004;73.342;2023-05-07T06:57:12;100933.44;;;26.81;9.47
69737;BME280;64476;55.004;73.342;2023-05-07T07:00:14;100978.66;;;27.11;9.36
69737;BME280;64476;55.004;73.342;2023-05-07T07:03:26;100877.22;;;26.58;9.15
69737;BME280;64476;55.004;73.342;2023-05-07T07:06:30;100953.03;;;27.09;9.05
69737;BME280;64476;55.004;73.342;2023-05-07T07:09:34;100935.69;;;26.94;9.14
69737;BME280;64476;55.004;73.342;2023-05-07T07:12:38;100917.88;;;26.88;9.12
69737;BME280;64476;55.004;73.342;2023-05-07T07:15:40;100924.44;;;27.08;9.31
69737;BME280;64476;55.004;73.342;2023-05-07T07:18:44;100900.94;;;26.98;9.17
69737;BME280;64476;55.004;73.342;2023-05-07T07:21:47;100944.44;;;27.12;8.83
69737;BME280;64476;55.004;73.342;2023-05-07T07:24:49;100932.00;;;27.06;9.30
69737;BME280;64476;55.004;73.342;2023-05-07T07:27:53;100924.69;;;27.01;9.47
69737;BME280;64476;55.004;73.342;2023-05-07T07:30:56;100932.34;;;27.19;9.48
69737;BME280;64476;55.004;73.342;2023-05-07T07:33:58;100917.25;;;27.23;9.25
69737;BME280;64476;55.004;73.342;2023-05-07T07:37:00;100891.31;;;27.17;9.43
69737;BME280;64476;55.004;73.342;2023-05-07T07:40:07;100898.13;;;27.30;9.23
69737;BME280;64476;55.004;73.342;2023-05-07T07:43:09;100923.31;;;27.46;9.08
69737;BME280;64476;55.004;73.342;2023-05-07T07:46:12;100902.53;;;27.41;9.45
69737;BME280;64476;55.004;73.342;2023-05-07T07:49:14;100919.28;;;27.48;9.14
69737;BME280;64476;55.004;73.342;2023-05-07T07:52:18;100891.97;;;27.40;9.28
69737;BME280;64476;55.004;73.342;2023-05-07T07:55:22;100888.91;;;27.21;8.69
69737;BME280;64476;55.004;73.342;2023-05-07T07:58:28;100905.91;;;27.21;9.10
69737;BME280;64476;55.004;73.342;2023-05-07T08:01:30;100832.56;;;26.72;9.24
69737;BME280;64476;55.004;73.342;2023-05-07T08:04:33;100885.13;;;27.22;9.00
69737;BME280;64476;55.004;73.342;2023-05-07T08:07:38;100894.91;;;27.33;9.02
69737;BME280;64476;55.004;73.342;2023-05-07T08:10:40;100862.50;;;27.23;8.92
69737;BME280;64476;55.004;73.342;2023-05-07T08:13:49;100884.41;;;27.37;8.92
69737;BME280;64476;55.004;73.342;2023-05-07T08:16:51;100869.84;;;27.38;8.96
69737;BME280;64476;55.004;73.342;2023-05-07T08:19:53;100853.59;;;27.27;9.20
69737;BME280;64476;55.004;73.342;2023-05-07T08:22:55;100875.22;;;27.33;8.76
69737;BME280;64476;55.004;73.342;2023-05-07T08:25:57;100852.28;;;27.30;8.94
69737;BME280;64476;55.004;73.342;2023-05-07T08:29:00;100841.44;;;27.25;9.25
69737;BME280;64476;55.004;73.342;2023-05-07T08:32:02;100867.19;;;27.53;8.77
69737;BME280;64476;55.004;73.342;2023-05-07T08:35:04;100848.56;;;27.51;8.61
69737;BME280;64476;55.004;73.342;2023-05-07T08:38:06;100860.47;;;27.66;8.73
69737;BME280;64476;55.004;73.342;2023-05-07T08:41:10;100843.72;;;27.48;8.84
69737;BME280;64476;55.004;73.342;2023-05-07T08:44:14;100846.56;;;27.16;9.38
69737;BME280;64476;55.004;73.342;2023-05-07T08:47:43;100826.75;;;26.90;9.17
69737;BME280;64476;55.004;73.342;2023-05-07T08:50:51;100833.25;;;26.99;8.70
69737;BME280;64476;55.004;73.342;2023-05-07T08:53:53;100847.66;;;27.20;8.91
69737;BME280;64476;55.004;73.342;2023-05-07T08:57:09;100809.56;;;27.07;8.73
69737;BME280;64476;55.004;73.342;2023-05-07T09:00:14;100811.41;;;26.96;8.96
69737;BME280;64476;55.004;73.342;2023-05-07T09:03:17;100813.06;;;27.07;8.90
69737;BME280;64476;55.004;73.342;2023-05-07T09:06:24;100827.91;;;27.15;8.72
69737;BME280;64476;55.004;73.342;2023-05-07T09:09:26;100819.00;;;27.09;9.04
69737;BME280;64476;55.004;73.342;2023-05-07T09:12:30;100802.59;;;27.16;9.29
69737;BME280;64476;55.004;73.342;2023-05-07T09:15:32;100815.00;;;27.22;9.35
69737;BME280;64476;55.004;73.342;2023-05-07T09:18:34;100773.41;;;27.02;9.04
69737;BME280;64476;55.004;73.342;2023-05-07T09:21:38;100801.22;;;27.18;8.91
69737;BME280;64476;55.004;73.342;2023-05-07T09:24:48;100796.63;;;27.14;8.86
69737;BME280;64476;55.004;73.342;2023-05-07T09:27:51;100793.38;;;27.07;8.89
69737;BME280;64476;55.004;73.342;2023-05-07T09:30:53;100790.16;;;27.04;8.83
69737;BME280;64476;55.004;73.342;2023-05-07T09:33:57;100783.69;;;27.11;9.17
69737;BME280;64476;55.004;73.342;2023-05-07T09:37:04;100777.78;;;27.19;9.18
69737;BME280;64476;55.004;73.342;2023-05-07T09:40:07;100771.03;;;27.16;8.94
69737;BME280;64476;55.004;73.342;2023-05-07T09:43:11;100765.06;;;27.04;9.10
69737;BME280;64476;55.004;73.342;2023-05-07T09:46:38;100767.53;;;27.21;8.92
69737;BME280;64476;55.004;73.342;2023-05-07T09:49:48;100759.72;;;27.19;9.08
69737;BME280;64476;55.004;73.342;2023-05-07T09:52:56;100713.56;;;27.06;8.97
69737;BME280;64476;55.004;73.342;2023-05-07T09:55:59;100724.66;;;27.19;9.20
69737;BME280;64476;55.004;73.342;2023-05-07T09:59:02;100744.94;;;27.37;8.99
69737;BME280;64476;55.004;73.342;2023-05-07T10:02:09;100749.22;;;27.33;8.80
69737;BME280;64476;55.004;73.342;2023-05-07T10:05:21;100750.31;;;27.32;8.60
69737;BME280;64476;55.004;73.342;2023-05-07T10:08:28;100740.09;;;27.34;8.74
69737;BME280;64476;55.004;73.342;2023-05-07T10:11:36;100723.03;;;27.28;8.29
69737;BME280;64476;55.004;73.342;2023-05-07T10:18:15;100700.44;;;27.45;8.30
69737;BME280;64476;55.004;73.342;2023-05-07T10:21:26;100720.34;;;27.85;8.38
69737;BME280;64476;55.004;73.342;2023-05-07T10:24:35;100709.84;;;27.88;8.40
69737;BME280;64476;55.004;73.342;2023-05-07T10:27:42;100700.44;;;27.86;8.15
69737;BME280;64476;55.004;73.342;2023-05-07T10:34:15;100706.59;;;28.02;8.73
69737;BME280;64476;55.004;73.342;2023-05-07T10:37:19;100706.06;;;27.94;8.87
69737;BME280;64476;55.004;73.342;2023-05-07T10:40:21;100698.50;;;28.02;8.95
69737;BME280;64476;55.004;73.342;2023-05-07T10:43:25;100702.78;;;28.23;8.86
69737;BME280;64476;55.004;73.342;2023-05-07T10:46:34;100700.34;;;28.27;8.75
69737;BME280;64476;55.004;73.342;2023-05-07T10:56:37;100691.81;;;29.13;8.30
69737;BME280;64476;55.004;73.342;2023-05-07T10:59:47;100683.69;;;29.53;8.28
69737;BME280;64476;55.004;73.342;2023-05-07T11:06:24;100684.59;;;30.68;7.95
69737;BME280;64476;55.004;73.342;2023-05-07T11:12:54;100683.63;;;31.53;7.43
69737;BME280;64476;55.004;73.342;2023-05-07T11:16:17;100668.25;;;31.63;7.41
69737;BME280;64476;55.004;73.342;2023-05-07T11:27:00;100663.34;;;32.61;7.40
69737;BME280;64476;55.004;73.342;2023-05-07T11:30:06;100673.34;;;32.74;7.47
69737;BME280;64476;55.004;73.342;2023-05-07T11:33:08;100664.59;;;32.14;7.63
69737;BME280;64476;55.004;73.342;2023-05-07T11:36:14;100659.28;;;31.29;8.19
69737;BME280;64476;55.004;73.342;2023-05-07T11:39:28;100628.06;;;30.37;8.56
69737;BME280;64476;55.004;73.342;2023-05-07T11:42:35;100646.34;;;29.79;9.13
69737;BME280;64476;55.004;73.342;2023-05-07T11:45:41;100653.69;;;29.10;9.81
69737;BME280;64476;55.004;73.342;2023-05-07T11:48:43;100645.06;;;28.58;9.98
69737;BME280;64476;55.004;73.342;2023-05-07T11:51:45;100660.66;;;28.22;10.41
69737;BME280;64476;55.004;73.342;2023-05-07T11:54:54;100641.00;;;27.91;10.21
69737;BME280;64476;55.004;73.342;2023-05-07T11:57:57;100621.31;;;27.70;10.31
69737;BME280;64476;55.004;73.342;2023-05-07T12:00:58;100622.44;;;27.54;10.63
69737;BME280;64476;55.004;73.342;2023-05-07T12:04:02;100644.56;;;27.45;10.72
69737;BME280;64476;55.004;73.342;2023-05-07T12:07:11;100628.88;;;27.07;10.85
69737;BME280;64476;55.004;73.342;2023-05-07T12:10:14;100607.03;;;26.83;11.20
69737;BME280;64476;55.004;73.342;2023-05-07T12:13:23;100647.19;;;26.89;11.07
69737;BME280;64476;55.004;73.342;2023-05-07T12:16:29;100632.63;;;26.75;11.11
69737;BME280;64476;55.004;73.342;2023-05-07T12:19:33;100627.16;;;26.54;11.33
69737;BME280;64476;55.004;73.342;2023-05-07T12:22:38;100621.69;;;26.34;11.30
69737;BME280;64476;55.004;73.342;2023-05-07T12:25:40;100623.00;;;26.26;11.47
69737;BME280;64476;55.004;73.342;2023-05-07T12:28:49;100626.69;;;26.15;11.30
69737;BME280;64476;55.004;73.342;2023-05-07T12:31:50;100618.84;;;26.03;11.50
69737;BME280;64476;55.004;73.342;2023-05-07T12:34:52;100615.81;;;25.90;11.68
69737;BME280;64476;55.004;73.342;2023-05-07T12:37:57;100615.50;;;25.81;11.92
69737;BME280;64476;55.004;73.342;2023-05-07T12:41:00;100609.28;;;25.75;12.10
69737;BME280;64476;55.004;73.342;2023-05-07T12:44:07;100591.09;;;25.55;12.04
69737;BME280;64476;55.004;73.342;2023-05-07T12:47:09;100602.19;;;25.59;12.01
69737;BME280;64476;55.004;73.342;2023-05-07T12:50:11;100580.22;;;25.35;12.11
69737;BME280;64476;55.004;73.342;2023-05-07T12:53:12;100586.09;;;25.32;12.23
69737;BME280;64476;55.004;73.342;2023-05-07T12:56:24;100596.28;;;25.30;12.26
69737;BME280;64476;55.004;73.342;2023-05-07T12:59:46;100581.66;;;25.16;12.74
69737;BME280;64476;55.004;73.342;2023-05-07T13:02:48;100586.44;;;25.08;12.92
69737;BME280;64476;55.004;73.342;2023-05-07T13:05:50;100586.13;;;25.05;12.99
69737;BME280;64476;55.004;73.342;2023-05-07T13:08:51;100582.78;;;24.93;13.15
69737;BME280;64476;55.004;73.342;2023-05-07T13:11:53;100583.06;;;24.91;13.01
69737;BME280;64476;55.004;73.342;2023-05-07T13:14:55;100579.19;;;24.82;13.10
69737;BME280;64476;55.004;73.342;2023-05-07T13:18:02;100573.47;;;24.73;13.73
69737;BME280;64476;55.004;73.342;2023-05-07T13:21:24;100553.97;;;24.56;13.68
69737;BME280;64476;55.004;73.342;2023-05-07T13:24:29;100513.84;;;24.22;13.93
69737;BME280;64476;55.004;73.342;2023-05-07T13:27:30;100557.88;;;24.43;13.89
69737;BME280;64476;55.004;73.342;2023-05-07T13:30:32;100577.31;;;24.55;14.08
69737;BME280;64476;55.004;73.342;2023-05-07T13:33:34;100548.28;;;24.30;14.32
69737;BME280;64476;55.004;73.342;2023-05-07T13:36:37;100566.09;;;24.36;14.27
69737;BME280;64476;55.004;73.342;2023-05-07T13:39:43;100571.69;;;24.35;14.19
69737;BME280;64476;55.004;73.342;2023-05-07T13:42:45;100551.38;;;24.17;14.36
69737;BME280;64476;55.004;73.342;2023-05-07T13:45:47;100545.63;;;24.08;14.78
69737;BME280;64476;55.004;73.342;2023-05-07T13:48:49;100546.13;;;24.05;14.88
69737;BME280;64476;55.004;73.342;2023-05-07T13:51:52;100517.84;;;23.76;14.64
69737;BME280;64476;55.004;73.342;2023-05-07T13:54:58;100549.94;;;23.87;14.89
69737;BME280;64476;55.004;73.342;2023-05-07T13:58:01;100552.91;;;23.91;15.05
69737;BME280;64476;55.004;73.342;2023-05-07T14:01:06;100533.03;;;23.70;14.86
69737;BME280;64476;55.004;73.342;2023-05-07T14:04:07;100547.53;;;23.69;14.93
69737;BME280;64476;55.004;73.342;2023-05-07T14:07:10;100558.81;;;23.71;14.86
69737;BME280;64476;55.004;73.342;2023-05-07T14:10:12;100562.78;;;23.68;14.81
69737;BME280;64476;55.004;73.342;2023-05-07T14:13:14;100564.50;;;23.58;15.27
69737;BME280;64476;55.004;73.342;2023-05-07T14:16:24;100563.16;;;23.55;15.14
69737;BME280;64476;55.004;73.342;2023-05-07T14:19:26;100561.75;;;23.53;15.13
69737;BME280;64476;55.004;73.342;2023-05-07T14:22:27;100552.69;;;23.37;15.23
69737;BME280;64476;55.004;73.342;2023-05-07T14:25:29;100554.94;;;23.28;15.41
69737;BME280;64476;55.004;73.342;2023-05-07T14:28:32;100533.72;;;23.10;15.49
69737;BME280;64476;55.004;73.342;2023-05-07T14:35:12;100562.66;;;23.08;15.73
69737;BME280;64476;55.004;73.342;2023-05-07T14:38:14;100551.09;;;22.90;15.77
69737;BME280;64476;55.004;73.342;2023-05-07T14:41:24;100575.81;;;22.92;15.83
69737;BME280;64476;55.004;73.342;2023-05-07T14:44:25;100545.88;;;22.67;16.14
69737;BME280;64476;55.004;73.342;2023-05-07T14:47:28;100541.75;;;22.59;16.13
69737;BME280;64476;55.004;73.342;2023-05-07T14:50:30;100564.53;;;22.62;16.15
69737;BME280;64476;55.004;73.342;2023-05-07T14:54:10;100570.19;;;22.48;16.63
69737;BME280;64476;55.004;73.342;2023-05-07T14:57:13;100565.22;;;22.29;16.61
69737;BME280;64476;55.004;73.342;2023-05-07T15:00:17;100558.19;;;22.11;17.02
69737;BME280;64476;55.004;73.342;2023-05-07T15:03:19;100571.22;;;22.07;17.03
69737;BME280;64476;55.004;73.342;2023-05-07T15:06:24;100549.50;;;21.80;17.24
69737;BME280;64476;55.004;73.342;2023-05-07T15:09:26;100565.53;;;21.80;17.31
69737;BME280;64476;55.004;73.342;2023-05-07T15:12:28;100561.00;;;21.69;17.38
69737;BME280;64476;55.004;73.342;2023-05-07T15:15:30;100565.09;;;21.60;17.85
69737;BME280;64476;55.004;73.342;2023-05-07T15:18:32;100576.59;;;21.60;17.82
69737;BME280;64476;55.004;73.342;2023-05-07T15:21:34;100537.28;;;21.25;17.91
69737;BME280;64476;55.004;73.342;2023-05-07T15:24:37;100574.13;;;21.35;18.28
69737;BME280;64476;55.004;73.342;2023-05-07T15:27:38;100563.28;;;21.18;18.55
69737;BME280;64476;55.004;73.342;2023-05-07T15:30:40;100533.41;;;20.98;18.57
69737;BME280;64476;55.004;73.342;2023-05-07T15:33:42;100571.19;;;21.13;18.63
69737;BME280;64476;55.004;73.342;2023-05-07T15:36:44;100535.19;;;20.74;18.92
69737;BME280;64476;55.004;73.342;2023-05-07T15:40:17;100582.97;;;20.94;19.21
69737;BME280;64476;55.004;73.342;2023-05-07T15:43:22;100569.44;;;20.77;19.04
69737;BME280;64476;55.004;73.342;2023-05-07T15:46:24;100549.28;;;20.51;19.21
69737;BME280;64476;55.004;73.342;2023-05-07T15:49:32;100572.59;;;20.55;19.06
69737;BME280;64476;55.004;73.342;2023-05-07T15:53:06;100564.41;;;20.39;19.20
69737;BME280;64476;55.004;73.342;2023-05-07T15:56:08;100567.97;;;20.32;19.34
69737;BME280;64476;55.004;73.342;2023-05-07T15:59:10;100547.69;;;20.13;19.41
69737;BME280;64476;55.004;73.342;2023-05-07T16:02:13;100547.63;;;20.01;19.43
69737;BME280;64476;55.004;73.342;2023-05-07T16:05:15;100544.66;;;19.91;19.33
69737;BME280;64476;55.004;73.342;2023-05-07T16:08:16;100555.50;;;19.90;19.50
69737;BME280;64476;55.004;73.342;2023-05-07T16:11:24;100570.06;;;19.94;19.85
69737;BME280;64476;55.004;73.342;2023-05-07T16:14:26;100562.81;;;19.82;19.66
69737;BME280;64476;55.004;73.342;2023-05-07T16:17:27;100570.19;;;19.80;19.75
69737;BME280;64476;55.004;73.342;2023-05-07T16:20:29;100544.72;;;19.59;19.89
69737;BME280;64476;55.004;73.342;2023-05-07T16:23:31;100559.66;;;19.67;19.70
69737;BME280;64476;55.004;73.342;2023-05-07T16:26:33;100547.19;;;19.61;19.95
69737;BME280;64476;55.004;73.342;2023-05-07T16:29:35;100538.06;;;19.50;19.80
69737;BME280;64476;55.004;73.342;2023-05-07T16:33:08;100544.88;;;19.46;19.62